Time;durP1;ratioP1;P1;durP2;ratioP2;P2;SDS_P1;SDS_P2;PMS_P1;PMS_P2;Temp;Humidity;BMP_temperature;BMP_pressure;BME280_temperature;BME280_humidity;BME280_pressure;Samples;Min_cycle;Max_cycle;Signal;HPM_P1;HPM_P2
2023/01/09 00:00:27;;;;;;;1.40;1.10;;;5.90;99.90;;;;;;4842051;29;20169;-93
2023/01/09 00:02:53;;;;;;;2.97;1.13;;;5.90;99.90;;;;;;4825749;29;20714;-91
2023/01/09 00:05:20;;;;;;;3.00;1.50;;;5.90;99.90;;;;;;4825864;29;20265;-91
2023/01/09 00:07:46;;;;;;;2.83;1.40;;;5.80;99.90;;;;;;4825437;29;20237;-90
2023/01/09 00:10:12;;;;;;;1.20;1.10;;;5.80;99.90;;;;;;4842083;29;20196;-91
2023/01/09 00:12:38;;;;;;;2.23;1.60;;;5.80;99.90;;;;;;4844468;29;20184;-91
2023/01/09 00:15:05;;;;;;;2.63;1.30;;;5.80;99.90;;;;;;4829526;29;20209;-91
2023/01/09 00:17:30;;;;;;;1.93;1.00;;;5.80;99.90;;;;;;4829229;29;20209;-90
2023/01/09 00:19:57;;;;;;;2.90;1.40;;;5.80;99.90;;;;;;4829379;29;20252;-90
2023/01/09 00:22:23;;;;;;;1.53;1.30;;;5.80;99.90;;;;;;4829349;29;20184;-91
2023/01/09 00:24:49;;;;;;;2.43;1.60;;;5.70;99.90;;;;;;4822273;29;20193;-92
2023/01/09 00:27:15;;;;;;;1.60;1.20;;;5.70;99.90;;;;;;4811061;29;20267;-90
2023/01/09 00:29:44;;;;;;;2.63;1.50;;;5.70;99.90;;;;;;4811323;29;20409;-91
2023/01/09 00:32:11;;;;;;;2.30;1.10;;;5.70;99.90;;;;;;4810957;29;20175;-90
2023/01/09 00:34:39;;;;;;;2.30;1.30;;;5.70;99.90;;;;;;4827005;29;20194;-91
2023/01/09 00:37:10;;;;;;;2.07;1.30;;;5.70;99.90;;;;;;4810689;29;20201;-91
2023/01/09 00:39:40;;;;;;;1.53;1.40;;;5.60;99.90;;;;;;4826909;29;20163;-91
2023/01/09 00:42:09;;;;;;;6.23;1.57;;;5.70;99.90;;;;;;4810892;29;20182;-91
2023/01/09 00:44:43;;;;;;;1.80;1.47;;;5.70;99.90;;;;;;4810187;29;20218;-90
2023/01/09 00:47:15;;;;;;;1.43;1.27;;;5.70;99.90;;;;;;4810559;29;20213;-91
2023/01/09 00:49:43;;;;;;;2.30;1.53;;;5.80;99.90;;;;;;4811204;29;20272;-90
2023/01/09 00:52:11;;;;;;;2.90;1.50;;;5.80;99.90;;;;;;4810525;29;20275;-91
2023/01/09 00:54:38;;;;;;;3.50;1.40;;;5.70;99.90;;;;;;4815842;29;20269;-90
2023/01/09 00:57:04;;;;;;;2.03;1.50;;;5.70;99.90;;;;;;4828480;29;20693;-92
2023/01/09 00:59:30;;;;;;;2.07;1.40;;;5.70;99.90;;;;;;4828337;29;20229;-90
2023/01/09 01:01:55;;;;;;;3.10;1.50;;;5.70;99.90;;;;;;4828489;29;20665;-90
2023/01/09 01:09:50;;;;;;;3.63;1.63;;;5.90;99.90;;;;;;4844941;29;20197;-90
2023/01/09 01:12:16;;;;;;;3.00;1.50;;;6.00;99.90;;;;;;4828099;29;20181;-90
2023/01/09 01:14:42;;;;;;;1.73;1.43;;;6.10;99.90;;;;;;4828135;29;20209;-90
2023/01/09 01:17:07;;;;;;;1.87;1.40;;;6.10;99.90;;;;;;4828170;29;20205;-89
2023/01/09 01:19:34;;;;;;;2.03;1.43;;;6.10;99.90;;;;;;4827946;29;20185;-91
2023/01/09 01:22:00;;;;;;;4.53;1.53;;;6.10;99.90;;;;;;4844132;29;20184;-90
2023/01/09 01:24:26;;;;;;;2.63;1.60;;;6.10;99.90;;;;;;4828136;29;20257;-90
2023/01/09 01:26:52;;;;;;;2.97;1.60;;;6.10;99.90;;;;;;4827814;29;20277;-90
2023/01/09 01:29:18;;;;;;;2.57;1.70;;;6.10;99.90;;;;;;4827900;29;20280;-91
2023/01/09 01:31:44;;;;;;;3.10;1.70;;;6.10;99.90;;;;;;4827722;29;20264;-91
2023/01/09 01:34:09;;;;;;;4.53;2.10;;;6.10;99.90;;;;;;4827857;29;20205;-90
2023/01/09 01:36:35;;;;;;;2.20;1.67;;;6.10;99.90;;;;;;4828043;29;20209;-90
2023/01/09 01:39:01;;;;;;;2.13;1.60;;;6.10;99.90;;;;;;4827706;29;20265;-90
2023/01/09 01:41:30;;;;;;;2.60;1.70;;;6.10;99.90;;;;;;4827556;29;20184;-90
2023/01/09 01:44:03;;;;;;;3.30;1.60;;;6.10;99.90;;;;;;4827900;29;20178;-89
2023/01/09 01:46:31;;;;;;;3.03;1.63;;;6.10;99.90;;;;;;4827818;29;20236;-91
2023/01/09 01:49:11;;;;;;;2.00;1.57;;;6.20;99.90;;;;;;4827588;29;20177;-91
2023/01/09 01:51:45;;;;;;;2.67;1.80;;;6.20;99.90;;;;;;4827633;29;20750;-89
2023/01/09 01:54:17;;;;;;;1.73;1.60;;;6.20;99.90;;;;;;4827495;29;20205;-90
2023/01/09 01:56:52;;;;;;;4.23;1.50;;;6.30;99.90;;;;;;5169904;24;20252;-87
2023/01/09 01:59:21;;;;;;;4.23;1.80;;;6.30;99.90;;;;;;4830976;29;20181;-87
2023/01/09 02:01:54;;;;;;;3.37;1.83;;;6.30;99.90;;;;;;4831460;29;20196;-88
2023/01/09 02:04:21;;;;;;;2.87;2.00;;;6.30;99.90;;;;;;4832344;29;20182;-88
2023/01/09 02:06:49;;;;;;;2.87;1.70;;;6.30;99.90;;;;;;4848655;29;20190;-89
2023/01/09 02:09:18;;;;;;;2.63;1.80;;;6.30;99.90;;;;;;4833078;29;20170;-89
2023/01/09 02:11:48;;;;;;;4.17;1.83;;;6.30;99.90;;;;;;4823935;29;20190;-89
2023/01/09 02:14:15;;;;;;;2.23;1.77;;;6.30;99.90;;;;;;4814350;29;20304;-88
2023/01/09 02:16:59;;;;;;;5.17;1.87;;;6.30;99.90;;;;;;4829055;29;20264;-90
2023/01/09 02:19:46;;;;;;;4.03;1.80;;;6.30;99.90;;;;;;4830118;29;20189;-90
2023/01/09 02:22:46;;;;;;;2.30;1.80;;;6.30;99.90;;;;;;4813590;29;20202;-89
2023/01/09 02:25:31;;;;;;;2.80;1.70;;;6.30;99.90;;;;;;4813077;29;20190;-90
2023/01/09 02:28:38;;;;;;;3.93;1.83;;;6.30;99.90;;;;;;4813385;29;20182;-89
2023/01/09 02:31:18;;;;;;;2.17;1.67;;;6.30;99.90;;;;;;4828781;29;20242;-89
2023/01/09 02:33:55;;;;;;;2.07;1.80;;;6.30;99.90;;;;;;4827924;29;20301;-89
2023/01/09 02:37:04;;;;;;;1.97;1.50;;;6.30;99.90;;;;;;4811369;29;20192;-89
2023/01/09 02:39:57;;;;;;;3.33;2.17;;;6.20;99.90;;;;;;4779250;29;20222;-89
2023/01/09 02:42:24;;;;;;;2.80;1.93;;;6.30;99.90;;;;;;4813215;29;20197;-89
2023/01/09 02:44:50;;;;;;;2.93;2.10;;;6.20;99.90;;;;;;4813059;29;20190;-89
2023/01/09 02:47:22;;;;;;;2.37;1.87;;;6.20;99.90;;;;;;4830016;29;20185;-89
2023/01/09 02:49:58;;;;;;;3.60;2.60;;;6.20;99.90;;;;;;4813896;29;20189;-89
2023/01/09 02:52:46;;;;;;;2.23;2.03;;;6.20;99.90;;;;;;4814196;29;20173;-90
2023/01/09 02:55:31;;;;;;;2.90;2.00;;;6.20;99.90;;;;;;4814063;29;20209;-90
2023/01/09 02:58:15;;;;;;;2.60;1.97;;;6.20;99.90;;;;;;4813037;29;20194;-90
2023/01/09 03:01:00;;;;;;;2.20;2.00;;;6.20;99.90;;;;;;4812733;29;20189;-89
2023/01/09 03:03:37;;;;;;;2.70;2.40;;;6.30;99.90;;;;;;4812440;29;20189;-90
2023/01/09 03:06:44;;;;;;;2.33;2.13;;;6.30;99.90;;;;;;4811205;29;20200;-91
2023/01/09 03:09:26;;;;;;;3.37;2.07;;;6.30;99.90;;;;;;4811995;29;20174;-90
2023/01/09 03:12:06;;;;;;;2.23;2.03;;;6.20;99.90;;;;;;4810938;29;20551;-90
2023/01/09 03:14:33;;;;;;;2.90;2.20;;;6.30;99.90;;;;;;4810850;29;20684;-90
2023/01/09 03:17:05;;;;;;;3.57;2.40;;;6.30;99.90;;;;;;4811266;29;20532;-88
2023/01/09 03:19:37;;;;;;;3.37;2.30;;;6.30;99.90;;;;;;4811034;29;20632;-91
2023/01/09 03:22:03;;;;;;;2.40;2.00;;;6.30;99.90;;;;;;4811027;29;20169;-89
2023/01/09 03:24:29;;;;;;;2.70;2.23;;;6.30;99.90;;;;;;4811662;29;20193;-96
2023/01/09 03:26:55;;;;;;;2.40;2.20;;;6.30;99.90;;;;;;4811355;29;20253;-93
2023/01/09 03:29:21;;;;;;;2.97;2.40;;;6.30;99.90;;;;;;4812279;29;20625;-89
2023/01/09 03:31:47;;;;;;;4.00;2.57;;;6.30;99.90;;;;;;4813549;29;20188;-91
2023/01/09 03:34:13;;;;;;;3.83;2.40;;;6.30;99.90;;;;;;4814456;29;20214;-88
2023/01/09 03:36:39;;;;;;;3.77;2.10;;;6.30;99.90;;;;;;4814384;29;20178;-89
2023/01/09 03:39:04;;;;;;;3.33;2.43;;;6.40;99.90;;;;;;4815609;29;20189;-89
2023/01/09 03:41:30;;;;;;;3.40;2.40;;;6.40;99.90;;;;;;4815842;29;20197;-90
2023/01/09 03:43:56;;;;;;;5.53;2.40;;;6.40;99.90;;;;;;4829881;29;20182;-90
2023/01/09 03:46:21;;;;;;;4.30;3.20;;;6.40;99.90;;;;;;4811043;29;20190;-89
2023/01/09 03:48:47;;;;;;;2.60;2.40;;;6.30;99.90;;;;;;4811685;29;20272;-88
2023/01/09 03:51:14;;;;;;;7.13;2.63;;;6.40;99.90;;;;;;4811241;29;20242;-88
2023/01/09 03:53:40;;;;;;;3.87;2.77;;;6.40;99.90;;;;;;4827825;29;20268;-88
2023/01/09 03:56:06;;;;;;;4.47;2.50;;;6.40;99.90;;;;;;4811949;29;20681;-88
2023/01/09 03:58:32;;;;;;;3.70;2.73;;;6.40;99.90;;;;;;4797194;29;20202;-90
2023/01/09 04:01:00;;;;;;;2.63;2.00;;;6.40;99.90;;;;;;4828226;29;20636;-88
2023/01/09 04:03:26;;;;;;;2.80;2.40;;;6.40;99.90;;;;;;4813151;29;20307;-88
2023/01/09 04:05:52;;;;;;;3.57;2.40;;;6.50;99.90;;;;;;4812782;29;20213;-87
2023/01/09 04:08:18;;;;;;;3.07;2.40;;;6.40;99.90;;;;;;4827996;29;20250;-87
2023/01/09 04:10:47;;;;;;;2.47;2.23;;;6.50;99.90;;;;;;4828458;29;20373;-89
2023/01/09 04:13:13;;;;;;;2.67;2.00;;;6.50;99.90;;;;;;4812502;29;20263;-89
2023/01/09 04:15:44;;;;;;;3.90;2.30;;;6.50;99.90;;;;;;4829269;29;20252;-88
2023/01/09 04:18:11;;;;;;;3.43;2.20;;;6.50;99.90;;;;;;4813432;29;20216;-88
2023/01/09 04:20:37;;;;;;;3.03;2.40;;;6.50;99.90;;;;;;4830120;29;20170;-87
2023/01/09 04:23:03;;;;;;;2.60;2.23;;;6.50;99.90;;;;;;4828140;29;20194;-88
2023/01/09 04:25:29;;;;;;;3.27;2.23;;;6.50;99.90;;;;;;4813659;29;20193;-88
2023/01/09 04:27:58;;;;;;;4.83;2.70;;;6.50;99.90;;;;;;4813312;29;20193;-88
2023/01/09 04:30:23;;;;;;;3.70;2.50;;;6.50;99.90;;;;;;4812874;29;20646;-88
2023/01/09 04:32:51;;;;;;;2.97;2.17;;;6.50;99.90;;;;;;4829515;29;20193;-88
2023/01/09 04:35:17;;;;;;;2.53;2.33;;;6.60;99.90;;;;;;4812756;29;20229;-88
2023/01/09 04:37:43;;;;;;;3.77;2.57;;;6.60;99.90;;;;;;4813548;29;20186;-88
2023/01/09 04:40:10;;;;;;;2.87;2.33;;;6.60;99.90;;;;;;4828357;29;20720;-88
2023/01/09 04:42:37;;;;;;;5.63;2.33;;;6.60;99.90;;;;;;4813534;29;20192;-88
2023/01/09 04:45:05;;;;;;;4.37;2.60;;;6.60;99.90;;;;;;4813817;29;20517;-88
2023/01/09 04:47:31;;;;;;;2.93;2.33;;;6.60;99.90;;;;;;4813564;29;20201;-88
2023/01/09 04:49:57;;;;;;;2.90;2.50;;;6.50;99.90;;;;;;4828550;29;20186;-88
2023/01/09 04:52:23;;;;;;;3.70;2.40;;;6.50;99.90;;;;;;4813520;29;20194;-88
2023/01/09 04:54:52;;;;;;;3.10;2.40;;;6.50;99.90;;;;;;4828529;29;20704;-87
2023/01/09 04:57:18;;;;;;;3.27;2.30;;;6.50;99.90;;;;;;4828801;29;20299;-86
2023/01/09 04:59:46;;;;;;;3.13;2.30;;;6.50;99.90;;;;;;4817097;29;20193;-88
2023/01/09 05:02:12;;;;;;;3.67;2.60;;;6.50;99.90;;;;;;4831928;29;20185;-88
2023/01/09 05:04:38;;;;;;;4.90;2.90;;;6.50;99.90;;;;;;4831540;29;20194;-88
2023/01/09 05:07:03;;;;;;;3.63;2.77;;;6.50;99.90;;;;;;4831585;29;20258;-87
2023/01/09 05:09:31;;;;;;;3.53;2.90;;;6.50;99.90;;;;;;4831187;29;20190;-88
2023/01/09 05:11:58;;;;;;;3.97;2.63;;;6.50;99.90;;;;;;4831152;29;20281;-88
2023/01/09 05:14:24;;;;;;;6.33;2.60;;;6.50;99.90;;;;;;4832539;29;20274;-88
2023/01/09 05:16:51;;;;;;;3.97;2.77;;;6.50;99.90;;;;;;4831049;29;20190;-88
2023/01/09 05:19:17;;;;;;;4.83;2.63;;;6.50;99.90;;;;;;4830980;29;20186;-88
2023/01/09 05:21:42;;;;;;;4.00;2.70;;;6.50;99.90;;;;;;4831530;29;20193;-88
2023/01/09 05:24:08;;;;;;;4.33;2.97;;;6.50;99.90;;;;;;4830977;29;20197;-87
2023/01/09 05:26:34;;;;;;;3.27;2.50;;;6.50;99.90;;;;;;4815966;29;20190;-87
2023/01/09 05:29:00;;;;;;;2.47;2.27;;;6.50;99.90;;;;;;4830987;29;20250;-87
2023/01/09 05:31:26;;;;;;;4.73;2.60;;;6.50;99.90;;;;;;4831771;29;20189;-88
2023/01/09 05:33:52;;;;;;;5.47;2.80;;;6.50;99.90;;;;;;4831637;29;20214;-87
2023/01/09 05:36:18;;;;;;;4.67;2.30;;;6.50;99.90;;;;;;4815183;29;20200;-87
2023/01/09 05:38:46;;;;;;;2.97;2.30;;;6.50;99.90;;;;;;4832090;29;20599;-87
2023/01/09 05:41:12;;;;;;;4.10;2.53;;;6.50;99.90;;;;;;4832645;29;20202;-86
2023/01/09 05:43:37;;;;;;;4.80;2.00;;;6.50;99.90;;;;;;4832800;29;20190;-86
2023/01/09 05:46:03;;;;;;;3.57;2.40;;;6.50;99.90;;;;;;4833141;29;20251;-86
2023/01/09 05:48:31;;;;;;;3.37;2.30;;;6.50;99.90;;;;;;4832087;29;20235;-87
2023/01/09 05:50:56;;;;;;;4.50;2.40;;;6.50;99.90;;;;;;4833245;29;20185;-87
2023/01/09 05:53:22;;;;;;;3.83;2.67;;;6.50;99.90;;;;;;4816803;29;20189;-87
2023/01/09 05:55:48;;;;;;;5.67;2.87;;;6.60;99.90;;;;;;4832454;29;20268;-87
2023/01/09 05:58:13;;;;;;;3.60;2.47;;;6.60;99.90;;;;;;4832920;29;20242;-87
2023/01/09 06:00:39;;;;;;;3.47;2.87;;;6.60;99.90;;;;;;4832419;29;20284;-85
2023/01/09 06:03:05;;;;;;;3.87;2.80;;;6.60;99.90;;;;;;4833315;29;20545;-87
2023/01/09 06:05:31;;;;;;;3.73;2.70;;;6.50;99.90;;;;;;4832851;29;20277;-87
2023/01/09 06:07:57;;;;;;;3.47;2.70;;;6.50;99.90;;;;;;4849984;29;20193;-87
2023/01/09 06:10:23;;;;;;;3.20;2.07;;;6.50;99.90;;;;;;4831721;29;20190;-87
2023/01/09 06:12:50;;;;;;;2.60;2.40;;;6.50;99.90;;;;;;4848895;29;20632;-87
2023/01/09 06:15:16;;;;;;;3.33;2.27;;;6.50;99.90;;;;;;4849050;29;20243;-87
2023/01/09 06:17:42;;;;;;;3.43;2.23;;;6.60;99.90;;;;;;4832455;29;20625;-88
2023/01/09 06:20:10;;;;;;;2.93;2.57;;;6.60;99.90;;;;;;4832105;29;20193;-87
2023/01/09 06:22:36;;;;;;;3.60;2.40;;;6.60;99.90;;;;;;4832333;29;20184;-87
2023/01/09 06:25:03;;;;;;;3.97;2.87;;;6.60;99.90;;;;;;4831988;29;20524;-87
2023/01/09 06:27:29;;;;;;;4.67;2.77;;;6.60;99.90;;;;;;4832012;29;20656;-87
2023/01/09 06:29:58;;;;;;;5.07;3.87;;;6.60;99.90;;;;;;4831935;29;20197;-87
2023/01/09 06:32:24;;;;;;;5.77;3.80;;;6.60;99.90;;;;;;4831589;29;20185;-86
2023/01/09 06:34:50;;;;;;;4.10;3.30;;;6.60;99.90;;;;;;4831230;29;20538;-87
2023/01/09 06:37:16;;;;;;;6.97;3.70;;;6.60;99.90;;;;;;4831473;29;20268;-87
2023/01/09 06:39:42;;;;;;;9.27;4.97;;;6.70;99.90;;;;;;4831260;29;20213;-86
2023/01/09 06:42:08;;;;;;;5.37;3.73;;;6.60;99.90;;;;;;4830780;29;20196;-86
2023/01/09 06:44:35;;;;;;;4.43;3.23;;;6.60;99.90;;;;;;4830942;29;20200;-86
2023/01/09 06:47:02;;;;;;;4.07;2.40;;;6.70;99.90;;;;;;4831289;29;20189;-85
2023/01/09 06:49:28;;;;;;;2.57;1.93;;;6.70;99.90;;;;;;4830322;29;20189;-86
2023/01/09 06:51:56;;;;;;;2.10;1.50;;;6.70;99.90;;;;;;4830179;29;20507;-88
2023/01/09 06:54:22;;;;;;;3.93;1.73;;;6.70;99.90;;;;;;4830382;29;20212;-89
2023/01/09 06:56:47;;;;;;;2.40;1.50;;;6.70;99.90;;;;;;4845762;29;20260;-86
2023/01/09 06:59:13;;;;;;;2.87;2.00;;;6.60;99.90;;;;;;4845489;29;20617;-86
2023/01/09 07:01:39;;;;;;;2.20;1.70;;;6.60;99.90;;;;;;4829690;29;20188;-85
2023/01/09 07:04:07;;;;;;;3.57;2.00;;;6.60;99.90;;;;;;4828742;29;20219;-85
2023/01/09 07:06:33;;;;;;;5.27;1.77;;;6.60;99.90;;;;;;4843283;29;20192;-85
2023/01/09 07:08:59;;;;;;;1.93;1.60;;;6.60;99.90;;;;;;4845268;29;20229;-85
2023/01/09 07:11:24;;;;;;;5.67;1.40;;;6.70;99.90;;;;;;4840515;29;20181;-84
2023/01/09 07:13:50;;;;;;;2.77;1.53;;;6.70;99.90;;;;;;4844691;29;20292;-85
2023/01/09 07:16:16;;;;;;;3.33;1.63;;;6.60;99.90;;;;;;4845649;29;20224;-85
2023/01/09 07:18:41;;;;;;;2.43;1.50;;;6.70;99.90;;;;;;4846267;29;20206;-85
2023/01/09 07:21:15;;;;;;;4.60;1.80;;;6.60;99.90;;;;;;4860991;29;20189;-94
2023/01/09 07:23:41;;;;;;;2.80;2.00;;;6.60;99.90;;;;;;4862950;29;20174;-85
2023/01/09 07:26:06;;;;;;;2.97;2.10;;;6.60;99.90;;;;;;4847351;29;20184;-84
2023/01/09 07:28:32;;;;;;;3.13;2.17;;;6.60;99.90;;;;;;4864005;29;20246;-85
2023/01/09 07:31:01;;;;;;;4.10;2.40;;;6.70;99.90;;;;;;4849524;29;20193;-85
2023/01/09 07:33:27;;;;;;;2.83;1.90;;;6.60;99.90;;;;;;4864928;29;20150;-85
2023/01/09 07:35:53;;;;;;;2.60;2.20;;;6.60;99.90;;;;;;4863743;29;20193;-85
2023/01/09 07:38:21;;;;;;;2.80;2.10;;;6.60;99.90;;;;;;4847876;29;20162;-85
2023/01/09 07:40:49;;;;;;;3.03;2.20;;;6.60;99.90;;;;;;4864452;29;20234;-84
2023/01/09 07:43:15;;;;;;;3.27;2.33;;;6.60;99.90;;;;;;4864197;29;20169;-85
2023/01/09 07:45:41;;;;;;;2.97;2.57;;;6.60;99.90;;;;;;4848930;29;20550;-86
2023/01/09 07:48:07;;;;;;;4.07;2.60;;;6.60;99.90;;;;;;4849030;29;20169;-84
2023/01/09 07:50:42;;;;;;;6.67;3.23;;;6.60;99.90;;;;;;4864528;29;20194;-85
2023/01/09 07:53:07;;;;;;;4.73;2.97;;;6.60;99.90;;;;;;4849709;29;20168;-85
2023/01/09 07:55:33;;;;;;;3.73;2.70;;;6.50;99.90;;;;;;4848138;29;20220;-88
2023/01/09 07:57:59;;;;;;;3.07;2.77;;;6.50;99.90;;;;;;4849825;29;20172;-86
2023/01/09 08:00:58;;;;;;;5.47;3.23;;;6.50;99.90;;;;;;4850349;29;20197;-86
2023/01/09 08:03:25;;;;;;;4.20;3.30;;;6.50;99.90;;;;;;4849148;29;20188;-85
2023/01/09 08:05:51;;;;;;;4.87;3.43;;;6.50;99.90;;;;;;4851110;29;20200;-85
2023/01/09 08:08:17;;;;;;;5.97;3.10;;;6.50;99.90;;;;;;4840547;29;20189;-88
2023/01/09 08:11:29;;;;;;;3.83;3.00;;;6.50;99.90;;;;;;4832812;29;20234;-86
2023/01/09 08:13:56;;;;;;;6.97;3.00;;;6.50;99.90;;;;;;4832537;29;20220;-84
2023/01/09 08:16:24;;;;;;;3.07;2.57;;;6.40;99.90;;;;;;4848196;29;20185;-86
2023/01/09 08:18:51;;;;;;;6.13;3.10;;;6.40;99.90;;;;;;4832485;29;20181;-86
2023/01/09 08:21:18;;;;;;;5.97;2.93;;;6.30;99.90;;;;;;4832167;29;20669;-85
2023/01/09 08:23:45;;;;;;;9.13;3.40;;;6.30;99.90;;;;;;4831854;29;20536;-86
2023/01/09 08:26:11;;;;;;;3.53;2.83;;;6.30;99.90;;;;;;4831663;29;20185;-86
2023/01/09 08:28:36;;;;;;;6.60;2.90;;;6.20;99.90;;;;;;4848093;29;20192;-86
2023/01/09 08:31:02;;;;;;;3.17;2.50;;;6.20;99.90;;;;;;4832143;29;20704;-86
2023/01/09 08:33:28;;;;;;;5.53;2.50;;;6.10;99.90;;;;;;4835091;29;20268;-85
2023/01/09 08:35:54;;;;;;;6.73;3.10;;;6.20;99.90;;;;;;4852518;29;20617;-86
2023/01/09 08:38:21;;;;;;;4.17;2.70;;;6.10;99.90;;;;;;4852084;29;20173;-85
2023/01/09 08:40:47;;;;;;;4.77;3.10;;;6.10;99.90;;;;;;4835644;29;20257;-85
2023/01/09 08:48:42;;;;;;;9.10;4.27;;;6.20;99.90;;;;;;4851782;29;20693;-87
2023/01/09 08:51:09;;;;;;;11.47;4.40;;;6.20;99.90;;;;;;4835792;29;20216;-84
2023/01/09 08:53:34;;;;;;;6.93;4.40;;;6.20;99.90;;;;;;4834883;29;20652;-85
2023/01/09 08:56:00;;;;;;;8.47;4.73;;;6.30;99.90;;;;;;4850903;29;20241;-84
2023/01/09 08:58:26;;;;;;;8.00;3.97;;;6.30;99.90;;;;;;4851937;29;20177;-87
2023/01/09 09:00:52;;;;;;;8.67;4.90;;;6.30;99.90;;;;;;4833686;29;20632;-84
2023/01/09 09:03:17;;;;;;;9.50;4.53;;;6.30;99.90;;;;;;4834408;29;20181;-86
2023/01/09 09:05:43;;;;;;;7.40;5.10;;;6.40;99.90;;;;;;4851952;29;20638;-85
2023/01/09 09:08:09;;;;;;;6.50;4.07;;;6.30;99.90;;;;;;4835652;29;20213;-85
2023/01/09 09:10:34;;;;;;;10.60;4.90;;;6.40;99.90;;;;;;4835797;29;20277;-86
2023/01/09 09:13:02;;;;;;;6.80;4.77;;;6.40;99.90;;;;;;4843709;29;20230;-85
2023/01/09 09:15:28;;;;;;;9.23;4.77;;;6.40;99.90;;;;;;4854691;29;20296;-85
2023/01/09 09:17:59;;;;;;;6.87;4.30;;;6.40;99.90;;;;;;4854816;29;20185;-85
2023/01/09 09:20:29;;;;;;;7.67;4.70;;;6.50;99.90;;;;;;4872803;29;20191;-86
2023/01/09 09:22:55;;;;;;;8.80;4.43;;;6.50;99.90;;;;;;4853549;29;20197;-84
2023/01/09 09:25:21;;;;;;;9.37;4.60;;;6.50;99.90;;;;;;4852470;29;20184;-84
2023/01/09 09:27:47;;;;;;;5.73;3.90;;;6.60;99.90;;;;;;4851991;29;20184;-86
2023/01/09 09:30:17;;;;;;;5.93;3.80;;;6.50;99.90;;;;;;4851823;29;20189;-85
2023/01/09 09:32:45;;;;;;;7.17;4.30;;;6.50;99.90;;;;;;4868526;29;20173;-85
2023/01/09 09:35:11;;;;;;;6.37;3.90;;;6.50;99.90;;;;;;4837283;29;20220;-84
2023/01/09 09:37:37;;;;;;;6.97;4.17;;;6.50;99.90;;;;;;4869686;29;20240;-85
2023/01/09 09:40:04;;;;;;;6.50;3.80;;;6.60;99.90;;;;;;4870339;29;20576;-84
2023/01/09 09:45:58;;;;;;;4.70;3.57;;;6.70;99.90;;;;;;4870395;29;20623;-84
2023/01/09 09:48:36;;;;;;;7.47;4.03;;;6.70;99.90;;;;;;4868331;29;20252;-84
2023/01/09 09:51:17;;;;;;;7.27;3.70;;;6.80;99.90;;;;;;4852134;29;20189;-84
2023/01/09 09:54:04;;;;;;;11.07;3.93;;;6.80;99.90;;;;;;4871915;29;20236;-84
2023/01/09 09:56:36;;;;;;;8.50;3.80;;;6.80;99.90;;;;;;4868061;29;20239;-84
2023/01/09 09:59:08;;;;;;;6.77;4.00;;;6.90;99.90;;;;;;4868977;29;20169;-84
2023/01/09 10:01:50;;;;;;;9.47;4.10;;;7.00;99.90;;;;;;4852758;29;20280;-85
2023/01/09 10:04:18;;;;;;;9.37;3.87;;;7.00;99.90;;;;;;4868345;29;20264;-84
2023/01/09 10:06:56;;;;;;;8.13;3.53;;;7.00;99.90;;;;;;4851793;29;20196;-84
2023/01/09 10:09:53;;;;;;;5.43;3.40;;;7.10;99.90;;;;;;4851570;29;20183;-84
2023/01/09 10:12:52;;;;;;;7.67;3.23;;;7.00;99.90;;;;;;4868863;29;20172;-84
2023/01/09 10:15:40;;;;;;;10.73;2.93;;;7.10;99.90;;;;;;4866969;29;20216;-84
2023/01/09 10:18:42;;;;;;;4.40;2.63;;;7.20;99.90;;;;;;4852433;29;20181;-85
2023/01/09 10:21:22;;;;;;;8.27;2.67;;;7.20;99.90;;;;;;4853662;29;20179;-84
2023/01/09 10:24:07;;;;;;;5.87;2.67;;;7.20;99.90;;;;;;4853884;29;20232;-84
2023/01/09 10:26:40;;;;;;;3.97;2.23;;;7.20;99.90;;;;;;4876701;24;20630;-84
2023/01/09 10:29:06;;;;;;;5.50;2.10;;;7.20;99.90;;;;;;4871079;29;20188;-84
2023/01/09 10:31:42;;;;;;;5.00;1.97;;;7.20;99.90;;;;;;4853135;29;20188;-84
2023/01/09 10:34:23;;;;;;;4.00;2.00;;;7.20;99.90;;;;;;4853308;29;20659;-84
2023/01/09 10:37:07;;;;;;;3.37;1.83;;;7.30;99.90;;;;;;4870073;29;20183;-84
2023/01/09 10:39:56;;;;;;;5.37;1.60;;;7.40;99.90;;;;;;4869756;29;20222;-83
2023/01/09 10:42:29;;;;;;;6.30;1.90;;;7.50;99.90;;;;;;4869536;29;20589;-84
2023/01/09 10:45:23;;;;;;;4.83;1.90;;;7.50;99.90;;;;;;4870986;29;20168;-84
2023/01/09 10:47:49;;;;;;;5.00;1.77;;;7.50;99.90;;;;;;4870209;29;20189;-83
2023/01/09 10:50:21;;;;;;;4.37;1.53;;;7.50;99.90;;;;;;4870514;29;20237;-84
2023/01/09 10:52:51;;;;;;;7.83;1.37;;;7.50;99.90;;;;;;4854070;29;20177;-84
2023/01/09 10:55:46;;;;;;;2.83;1.40;;;7.60;99.90;;;;;;4870150;29;20687;-83
2023/01/09 10:58:14;;;;;;;4.93;1.20;;;7.60;99.90;;;;;;4852973;29;20180;-83
2023/01/09 11:00:41;;;;;;;7.20;1.30;;;7.60;99.90;;;;;;4852872;29;20207;-84
2023/01/09 11:03:12;;;;;;;3.37;1.00;;;7.60;99.90;;;;;;4868588;29;20196;-84
2023/01/09 11:05:38;;;;;;;1.93;0.83;;;7.60;99.90;;;;;;4837498;29;20200;-88
2023/01/09 11:08:07;;;;;;;5.27;1.10;;;7.50;99.90;;;;;;4851882;29;20181;-84
2023/01/09 11:10:56;;;;;;;2.33;0.97;;;7.50;99.90;;;;;;4851359;29;20180;-85
2023/01/09 11:13:28;;;;;;;4.23;1.07;;;7.50;99.90;;;;;;4851343;29;20181;-83
2023/01/09 11:16:13;;;;;;;2.17;0.83;;;7.50;99.90;;;;;;4866900;29;20196;-84
2023/01/09 11:19:02;;;;;;;2.47;0.93;;;7.50;99.90;;;;;;4852149;29;20676;-83
2023/01/09 11:21:36;;;;;;;1.90;0.80;;;7.50;99.90;;;;;;4868662;29;20184;-83
2023/01/09 11:24:27;;;;;;;5.47;1.40;;;7.50;99.90;;;;;;4866874;29;20263;-84
2023/01/09 11:27:16;;;;;;;7.40;1.33;;;7.50;99.90;;;;;;4867220;29;20232;-84
2023/01/09 11:29:43;;;;;;;3.80;0.90;;;7.50;99.90;;;;;;4842844;29;20288;-84
2023/01/09 11:32:22;;;;;;;5.03;0.83;;;7.50;99.90;;;;;;4867105;29;20188;-84
2023/01/09 11:34:48;;;;;;;6.70;1.20;;;7.60;99.90;;;;;;4866792;29;20242;-83
2023/01/09 11:37:24;;;;;;;4.00;1.63;;;7.70;99.90;;;;;;4850279;29;20644;-83
2023/01/09 11:39:51;;;;;;;3.87;0.97;;;7.80;99.90;;;;;;4866742;29;20180;-84
2023/01/09 11:42:49;;;;;;;4.63;1.17;;;7.90;99.90;;;;;;4866866;29;20652;-84
2023/01/09 11:45:45;;;;;;;4.37;0.80;;;8.00;99.90;;;;;;4866457;29;20248;-85
2023/01/09 11:48:28;;;;;;;2.97;0.70;;;8.10;99.90;;;;;;4863069;29;20248;-83
2023/01/09 11:50:56;;;;;;;4.37;0.90;;;8.10;99.90;;;;;;4865091;29;20541;-84
2023/01/09 11:53:25;;;;;;;4.20;1.10;;;8.00;99.90;;;;;;4850366;29;20233;-84
2023/01/09 11:56:03;;;;;;;1.03;0.77;;;7.90;99.90;;;;;;4849600;29;20267;-87
2023/01/09 11:58:33;;;;;;;5.73;0.80;;;7.90;99.90;;;;;;4866849;29;20176;-84
2023/01/09 12:01:18;;;;;;;1.00;0.60;;;8.00;99.90;;;;;;4848549;29;20290;-84
2023/01/09 12:03:50;;;;;;;2.13;0.70;;;8.00;99.90;;;;;;4849185;29;20596;-84
2023/01/09 12:06:15;;;;;;;4.03;0.90;;;8.00;99.90;;;;;;4850671;29;20207;-84
2023/01/09 12:08:55;;;;;;;2.47;0.70;;;8.00;99.90;;;;;;4869188;29;20620;-85
2023/01/09 12:11:37;;;;;;;3.10;0.73;;;8.00;99.90;;;;;;4852001;29;20180;-86
2023/01/09 12:14:25;;;;;;;1.37;0.63;;;7.90;99.90;;;;;;4851591;29;20215;-85
2023/01/09 12:17:41;;;;;;;1.00;0.60;;;8.00;99.90;;;;;;4851689;29;20235;-84
2023/01/09 12:20:21;;;;;;;1.93;0.80;;;8.00;99.90;;;;;;4795911;29;20170;-86
2023/01/09 12:23:09;;;;;;;1.77;0.60;;;7.90;99.90;;;;;;4811112;29;20261;-84
2023/01/09 12:26:06;;;;;;;2.37;0.70;;;7.90;99.90;;;;;;4847593;29;20200;-90
2023/01/09 12:28:58;;;;;;;2.60;0.70;;;7.90;99.90;;;;;;4873260;29;20243;-89
2023/01/09 12:31:49;;;;;;;3.30;0.70;;;7.90;99.90;;;;;;4861177;29;20244;-85
2023/01/09 12:34:58;;;;;;;2.67;0.57;;;8.00;99.90;;;;;;4862628;29;20675;-84
2023/01/09 12:37:58;;;;;;;3.53;0.70;;;7.90;99.90;;;;;;4876989;29;20184;-89
2023/01/09 12:40:47;;;;;;;1.87;0.80;;;8.00;99.90;;;;;;4862151;29;20248;-90
2023/01/09 12:43:42;;;;;;;3.27;0.93;;;7.90;99.90;;;;;;4823124;29;20192;-89
2023/01/09 12:46:34;;;;;;;3.23;0.90;;;8.00;99.90;;;;;;4879733;29;20207;-94
2023/01/09 12:49:33;;;;;;;2.23;0.60;;;7.90;99.90;;;;;;4853146;29;20257;-95
2023/01/09 12:52:08;;;;;;;1.33;0.50;;;7.90;99.90;;;;;;4849574;29;20270;-91
2023/01/09 12:54:46;;;;;;;0.77;0.60;;;7.90;99.90;;;;;;4849330;29;20227;-90
2023/01/09 12:57:11;;;;;;;1.27;0.57;;;7.90;99.90;;;;;;4865753;29;20173;-86
2023/01/09 12:59:52;;;;;;;3.57;0.90;;;7.90;99.90;;;;;;4849164;29;20184;-93
2023/01/09 13:02:26;;;;;;;1.60;0.60;;;8.00;99.90;;;;;;4866101;29;20209;-92
2023/01/09 13:05:00;;;;;;;1.73;0.80;;;8.00;99.90;;;;;;4849288;29;20207;-96
2023/01/09 13:07:31;;;;;;;2.47;0.80;;;8.00;99.90;;;;;;4849118;29;20177;-94
2023/01/09 13:10:24;;;;;;;3.77;0.90;;;8.00;99.90;;;;;;4850397;29;20191;-95
2023/01/09 13:12:51;;;;;;;1.43;0.50;;;8.10;99.90;;;;;;4868329;29;20187;-92
2023/01/09 13:15:36;;;;;;;1.33;0.57;;;8.10;99.90;;;;;;4849586;29;20311;-93
2023/01/09 13:18:32;;;;;;;1.13;0.50;;;8.10;99.90;;;;;;4865478;29;20185;-91
2023/01/09 13:21:00;;;;;;;2.83;0.60;;;8.10;99.90;;;;;;4848985;29;20317;-93
2023/01/09 13:24:06;;;;;;;3.40;0.50;;;8.10;99.90;;;;;;4849017;29;20641;-93
2023/01/09 13:26:41;;;;;;;3.27;0.53;;;8.20;99.90;;;;;;4865092;29;20248;-93
2023/01/09 13:29:12;;;;;;;0.70;0.40;;;8.10;99.90;;;;;;4865555;29;20601;-94
2023/01/09 13:31:56;;;;;;;2.80;0.70;;;8.20;99.90;;;;;;4849529;29;20211;-95
2023/01/09 13:34:25;;;;;;;2.70;0.40;;;8.20;99.90;;;;;;4863980;29;20276;-94
2023/01/09 13:36:53;;;;;;;1.33;0.50;;;8.20;99.90;;;;;;4848834;29;20181;-95